Time;durP1;ratioP1;P1;durP2;ratioP2;P2;SDS_P1;SDS_P2;PMS_P1;PMS_P2;Temp;Humidity;BMP_temperature;BMP_pressure;BME280_temperature;BME280_humidity;BME280_pressure;Samples;Min_cycle;Max_cycle;Signal;HPM_P1;HPM_P2
2023/09/17 00:00:16;;;;;;;17.52;10.15;;;20.30;99.90;;;;;;5033521;28;20041;-53
2023/09/17 00:02:41;;;;;;;17.88;10.35;;;20.30;99.90;;;;;;5033682;28;20041;-52
2023/09/17 00:05:07;;;;;;;18.90;11.50;;;20.30;99.90;;;;;;5016282;28;20060;-54
2023/09/17 00:07:33;;;;;;;21.27;13.98;;;20.30;99.90;;;;;;5033733;28;20030;-49
2023/09/17 00:09:58;;;;;;;19.73;13.32;;;20.30;99.90;;;;;;5015705;28;20512;-54
2023/09/17 00:12:25;;;;;;;22.63;13.75;;;20.40;99.90;;;;;;5033694;28;20080;-53
2023/09/17 00:14:50;;;;;;;21.67;13.40;;;20.30;99.90;;;;;;5033512;28;20095;-53
2023/09/17 00:17:16;;;;;;;18.45;11.38;;;20.30;99.90;;;;;;5033733;28;20499;-54
2023/09/17 00:19:41;;;;;;;17.25;11.93;;;20.30;99.90;;;;;;5033130;28;20083;-53
2023/09/17 00:22:09;;;;;;;19.00;11.63;;;20.20;99.90;;;;;;5033367;28;20520;-53
2023/09/17 00:24:35;;;;;;;17.08;11.45;;;20.10;99.90;;;;;;5034109;28;20037;-49
2023/09/17 00:27:01;;;;;;;15.00;9.45;;;20.10;99.90;;;;;;5033433;28;20037;-54
2023/09/17 00:29:26;;;;;;;18.45;11.15;;;20.10;99.90;;;;;;5033240;28;20033;-53
2023/09/17 00:31:52;;;;;;;15.07;10.65;;;20.20;99.90;;;;;;5014621;28;20033;-54
2023/09/17 00:34:18;;;;;;;18.35;11.48;;;20.30;99.90;;;;;;5015590;28;20060;-53
2023/09/17 00:36:43;;;;;;;15.25;10.15;;;20.30;99.90;;;;;;5015615;28;20101;-53
2023/09/17 00:39:09;;;;;;;16.40;11.85;;;20.20;99.90;;;;;;5015031;28;20124;-55
2023/09/17 00:41:35;;;;;;;15.73;10.45;;;20.10;99.90;;;;;;5015479;28;20080;-54
2023/09/17 00:44:02;;;;;;;18.48;12.45;;;20.00;99.90;;;;;;5033668;28;20113;-53
2023/09/17 00:46:29;;;;;;;19.85;13.18;;;19.90;99.90;;;;;;5015985;28;20034;-50
2023/09/17 00:48:55;;;;;;;19.55;13.07;;;19.80;99.90;;;;;;5016190;28;20641;-53
2023/09/17 00:51:21;;;;;;;21.90;13.95;;;19.70;99.90;;;;;;5016126;28;20037;-53
2023/09/17 00:53:47;;;;;;;22.80;14.68;;;19.70;99.90;;;;;;5034437;28;20091;-51
2023/09/17 00:56:13;;;;;;;22.40;14.63;;;19.60;99.90;;;;;;5034065;28;20056;-51
2023/09/17 00:58:40;;;;;;;24.17;16.05;;;19.50;99.90;;;;;;5034171;28;20029;-49
2023/09/17 01:01:08;;;;;;;29.38;17.00;;;19.40;99.90;;;;;;5016285;28;20044;-51
2023/09/17 01:03:36;;;;;;;27.08;16.98;;;19.30;99.90;;;;;;5034586;28;20032;-56
2023/09/17 01:06:03;;;;;;;28.70;17.58;;;19.10;99.90;;;;;;5034514;28;20048;-55
2023/09/17 01:08:29;;;;;;;26.27;15.98;;;19.00;99.90;;;;;;5015952;28;20045;-53
2023/09/17 01:10:56;;;;;;;27.20;16.83;;;19.00;99.90;;;;;;5016227;28;20470;-54
2023/09/17 01:13:23;;;;;;;25.40;15.65;;;18.90;99.90;;;;;;5016455;28;20086;-53
2023/09/17 01:15:51;;;;;;;25.88;16.10;;;18.80;99.90;;;;;;5016468;28;20108;-53
2023/09/17 01:18:21;;;;;;;26.33;15.15;;;18.80;99.90;;;;;;5016039;28;20033;-50
2023/09/17 01:21:00;;;;;;;27.73;16.60;;;18.70;99.90;;;;;;5015840;28;20036;-54
2023/09/17 01:23:34;;;;;;;21.98;15.10;;;18.70;99.90;;;;;;5015775;28;20071;-53
2023/09/17 01:26:26;;;;;;;28.73;16.58;;;18.60;99.90;;;;;;5033185;28;20037;-53
2023/09/17 01:28:56;;;;;;;25.85;16.20;;;18.60;99.90;;;;;;5032860;28;20044;-53
2023/09/17 01:31:25;;;;;;;28.45;16.70;;;18.50;99.90;;;;;;5014943;28;20037;-56
2023/09/17 01:33:53;;;;;;;26.90;15.82;;;18.40;99.90;;;;;;5015856;28;20026;-52
2023/09/17 01:36:33;;;;;;;33.90;17.95;;;18.40;99.90;;;;;;5014928;28;20091;-53
2023/09/17 01:39:06;;;;;;;25.40;15.38;;;18.40;99.90;;;;;;5031523;28;20381;-54
2023/09/17 01:41:33;;;;;;;26.85;15.77;;;18.40;99.90;;;;;;5032744;28;20030;-55
2023/09/17 01:44:02;;;;;;;28.15;16.27;;;18.30;99.90;;;;;;5002259;28;20041;-55
2023/09/17 01:46:30;;;;;;;28.25;17.05;;;18.30;99.90;;;;;;5020195;28;20033;-54
2023/09/17 01:48:56;;;;;;;29.75;17.52;;;18.30;99.90;;;;;;5036939;28;20080;-53
2023/09/17 01:51:22;;;;;;;27.05;16.17;;;18.30;99.90;;;;;;5002388;28;20040;-55
2023/09/17 01:53:48;;;;;;;26.27;16.08;;;18.30;99.90;;;;;;5018319;28;20029;-54
2023/09/17 01:56:14;;;;;;;30.27;17.05;;;18.20;99.90;;;;;;5036397;28;20156;-53
2023/09/17 01:58:40;;;;;;;29.60;16.05;;;18.20;99.90;;;;;;5017376;28;20037;-55
2023/09/17 02:01:05;;;;;;;30.20;16.77;;;18.20;99.90;;;;;;5002189;28;20026;-54
2023/09/17 02:03:31;;;;;;;29.35;16.85;;;18.20;99.90;;;;;;5018049;28;20018;-53
2023/09/17 02:05:57;;;;;;;31.30;17.58;;;18.20;99.90;;;;;;5018006;28;20613;-52
2023/09/17 02:08:22;;;;;;;24.15;16.10;;;18.20;99.90;;;;;;5035770;28;20083;-55
2023/09/17 02:10:48;;;;;;;28.25;15.60;;;18.10;99.90;;;;;;5017815;28;20052;-54
2023/09/17 02:13:14;;;;;;;30.20;17.17;;;18.10;99.90;;;;;;5035726;28;20072;-52
2023/09/17 02:15:40;;;;;;;29.15;16.23;;;18.10;99.90;;;;;;5017870;28;20025;-54
2023/09/17 02:18:05;;;;;;;30.60;16.15;;;18.10;99.90;;;;;;5017749;28;20021;-55
2023/09/17 02:20:31;;;;;;;31.08;16.83;;;18.10;99.90;;;;;;5017059;28;20087;-53
2023/09/17 02:22:56;;;;;;;25.42;14.88;;;18.10;99.90;;;;;;5035407;28;20036;-54
2023/09/17 02:25:22;;;;;;;25.60;14.85;;;18.10;99.90;;;;;;5001421;28;20041;-55
2023/09/17 02:27:48;;;;;;;28.20;16.92;;;18.10;99.90;;;;;;5017329;28;20124;-53
2023/09/17 02:30:13;;;;;;;30.10;16.00;;;18.10;99.90;;;;;;5017009;28;20040;-54
2023/09/17 02:32:39;;;;;;;28.45;16.40;;;18.10;99.90;;;;;;5017223;28;20036;-55
2023/09/17 02:35:08;;;;;;;28.73;15.25;;;18.10;99.90;;;;;;5035106;28;20026;-54
2023/09/17 02:37:34;;;;;;;27.45;15.10;;;18.10;99.90;;;;;;5017101;28;20025;-55
2023/09/17 02:40:00;;;;;;;26.48;15.25;;;18.10;99.90;;;;;;5016832;28;20413;-53
2023/09/17 02:42:25;;;;;;;26.50;15.45;;;18.10;99.90;;;;;;5035072;28;20465;-55
2023/09/17 02:44:51;;;;;;;22.38;14.70;;;18.00;99.90;;;;;;5017616;28;20026;-56
2023/09/17 02:47:17;;;;;;;26.67;15.10;;;18.00;99.90;;;;;;5017300;28;20041;-51
2023/09/17 02:49:43;;;;;;;27.00;15.73;;;18.00;99.90;;;;;;5016900;28;20041;-53
2023/09/17 02:52:09;;;;;;;27.65;15.90;;;18.00;99.90;;;;;;5017151;28;20087;-51
2023/09/17 02:54:35;;;;;;;28.25;15.75;;;18.00;99.90;;;;;;5015871;28;20061;-54
2023/09/17 02:57:01;;;;;;;30.70;15.68;;;18.00;99.90;;;;;;5017234;28;20037;-54
2023/09/17 02:59:27;;;;;;;27.35;15.68;;;17.90;99.90;;;;;;5016581;28;20029;-54
2023/09/17 03:01:52;;;;;;;26.77;15.27;;;17.90;99.90;;;;;;5017041;28;20025;-54
2023/09/17 03:04:18;;;;;;;26.80;15.13;;;17.90;99.90;;;;;;5016957;28;20033;-53
2023/09/17 03:06:44;;;;;;;29.05;15.93;;;17.90;99.90;;;;;;5017174;28;20105;-52
2023/09/17 03:09:11;;;;;;;24.17;14.90;;;17.90;99.90;;;;;;5016557;28;20040;-54
2023/09/17 03:11:38;;;;;;;28.85;15.30;;;17.90;99.90;;;;;;5016642;28;20090;-52
2023/09/17 03:14:03;;;;;;;29.17;14.80;;;17.90;99.90;;;;;;5016862;28;20036;-53
2023/09/17 03:16:29;;;;;;;27.92;15.63;;;17.80;99.90;;;;;;5016757;28;20025;-54
2023/09/17 03:18:56;;;;;;;26.48;15.68;;;17.90;99.90;;;;;;5015480;28;20116;-54
2023/09/17 03:21:22;;;;;;;24.15;14.23;;;17.80;99.90;;;;;;5016346;28;20564;-54
2023/09/17 03:23:48;;;;;;;29.38;16.00;;;17.80;99.90;;;;;;5034376;28;20029;-53
2023/09/17 03:26:13;;;;;;;30.13;16.33;;;17.80;99.90;;;;;;5016997;28;20105;-55
2023/09/17 03:28:39;;;;;;;28.27;16.50;;;17.80;99.90;;;;;;4999921;28;20025;-52
2023/09/17 03:31:05;;;;;;;29.30;16.00;;;17.80;99.90;;;;;;5016093;28;20018;-54
2023/09/17 03:33:31;;;;;;;26.33;16.58;;;17.80;99.90;;;;;;5016222;28;20555;-54
2023/09/17 03:36:00;;;;;;;30.75;15.00;;;17.80;99.90;;;;;;5016295;28;20036;-53
2023/09/17 03:38:27;;;;;;;28.98;16.17;;;17.80;99.90;;;;;;5015745;28;20033;-54
2023/09/17 03:40:52;;;;;;;24.60;14.95;;;17.80;99.90;;;;;;5015982;28;20143;-55
2023/09/17 03:43:18;;;;;;;28.50;15.90;;;17.80;99.90;;;;;;5015812;28;20133;-53
2023/09/17 03:45:45;;;;;;;27.35;15.75;;;17.80;99.90;;;;;;5015500;28;20029;-55
2023/09/17 03:48:12;;;;;;;27.23;15.88;;;17.80;99.90;;;;;;5033305;28;20030;-55
2023/09/17 03:50:39;;;;;;;30.80;16.40;;;17.80;99.90;;;;;;4999002;28;20033;-53
2023/09/17 03:53:06;;;;;;;29.17;15.48;;;17.80;99.90;;;;;;5015521;28;20026;-55
2023/09/17 03:55:34;;;;;;;28.13;15.80;;;17.90;99.90;;;;;;5015570;28;20026;-54
2023/09/17 03:58:01;;;;;;;26.02;15.10;;;17.90;99.90;;;;;;5015865;28;20029;-54
2023/09/17 04:00:33;;;;;;;27.25;16.15;;;17.80;99.90;;;;;;4999439;28;20029;-53
2023/09/17 04:03:00;;;;;;;30.85;15.88;;;17.80;99.90;;;;;;5015643;28;20033;-55
2023/09/17 04:05:26;;;;;;;28.60;15.25;;;17.80;99.90;;;;;;5015143;28;20033;-54
2023/09/17 04:07:51;;;;;;;27.45;14.63;;;17.80;99.90;;;;;;5032976;28;20124;-53
2023/09/17 04:10:18;;;;;;;25.58;14.70;;;17.80;99.90;;;;;;5015018;28;20080;-55
2023/09/17 04:12:45;;;;;;;26.45;14.50;;;17.80;99.90;;;;;;5015187;28;20029;-53
2023/09/17 04:15:16;;;;;;;25.58;14.68;;;17.80;99.90;;;;;;5032689;28;20034;-55
2023/09/17 04:17:43;;;;;;;28.75;15.45;;;17.80;99.90;;;;;;5015373;28;20565;-53
2023/09/17 04:20:11;;;;;;;25.27;14.40;;;17.80;99.90;;;;;;5014772;28;20033;-53
2023/09/17 04:22:37;;;;;;;24.88;14.80;;;17.80;99.90;;;;;;5015077;28;20030;-54
2023/09/17 04:25:06;;;;;;;29.55;14.43;;;17.70;99.90;;;;;;5015111;28;20445;-55
2023/09/17 04:27:32;;;;;;;25.35;14.35;;;17.70;99.90;;;;;;5014896;28;20533;-55
2023/09/17 04:29:58;;;;;;;28.27;13.95;;;17.70;99.90;;;;;;5014215;28;20087;-55
2023/09/17 04:32:24;;;;;;;27.77;15.70;;;17.70;99.90;;;;;;5014442;28;20035;-55
2023/09/17 04:34:49;;;;;;;29.63;15.85;;;17.70;99.90;;;;;;5014171;28;20029;-53
2023/09/17 04:37:19;;;;;;;25.17;14.32;;;17.60;99.90;;;;;;5014407;28;20036;-55
2023/09/17 04:39:49;;;;;;;26.92;14.63;;;17.60;99.90;;;;;;5014095;28;20022;-54
2023/09/17 04:42:15;;;;;;;26.92;14.95;;;17.60;99.90;;;;;;5014448;28;20768;-55
2023/09/17 04:44:41;;;;;;;26.17;14.23;;;17.60;99.90;;;;;;5015217;28;20034;-53
2023/09/17 04:47:07;;;;;;;22.52;13.27;;;17.60;99.90;;;;;;5015033;28;20120;-55
2023/09/17 04:49:33;;;;;;;25.33;13.70;;;17.50;99.90;;;;;;5015099;28;20036;-55
2023/09/17 04:52:00;;;;;;;26.10;14.82;;;17.60;99.90;;;;;;5015398;28;20033;-54
2023/09/17 04:54:27;;;;;;;30.17;15.10;;;17.50;99.90;;;;;;5015119;28;20025;-55
2023/09/17 04:56:53;;;;;;;26.88;14.95;;;17.50;99.90;;;;;;5015218;28;20429;-54
2023/09/17 04:59:20;;;;;;;23.00;13.77;;;17.50;99.90;;;;;;5015031;28;20045;-55
2023/09/17 05:01:46;;;;;;;31.27;15.13;;;17.50;99.90;;;;;;5015366;28;20087;-53
2023/09/17 05:04:11;;;;;;;27.98;15.60;;;17.50;99.90;;;;;;5015004;28;20037;-52
2023/09/17 05:06:37;;;;;;;27.50;15.07;;;17.50;99.90;;;;;;5015383;28;20034;-53
2023/09/17 05:09:03;;;;;;;31.55;16.52;;;17.50;99.90;;;;;;5014531;28;20033;-52
2023/09/17 05:11:32;;;;;;;29.92;15.80;;;17.40;99.90;;;;;;5015207;28;20037;-54
2023/09/17 05:13:57;;;;;;;30.30;16.27;;;17.40;99.90;;;;;;5032562;28;20033;-53
2023/09/17 05:16:23;;;;;;;30.23;16.33;;;17.40;99.90;;;;;;5032956;28;20026;-53
2023/09/17 05:18:49;;;;;;;30.40;15.88;;;17.40;99.90;;;;;;5017607;28;20030;-54
2023/09/17 05:21:15;;;;;;;28.52;14.73;;;17.40;99.90;;;;;;5018810;28;20136;-53
2023/09/17 05:23:41;;;;;;;30.58;16.42;;;17.40;99.90;;;;;;5019012;28;20452;-52
2023/09/17 05:26:07;;;;;;;29.10;15.85;;;17.40;99.90;;;;;;5018630;28;20029;-54
2023/09/17 05:28:32;;;;;;;29.88;16.73;;;17.30;99.90;;;;;;5018623;28;20120;-55
2023/09/17 05:30:59;;;;;;;32.72;16.63;;;17.30;99.90;;;;;;5018104;28;20029;-54
2023/09/17 05:33:26;;;;;;;31.55;16.85;;;17.30;99.90;;;;;;5018695;28;20486;-52
2023/09/17 05:35:56;;;;;;;33.85;17.30;;;17.30;99.90;;;;;;5019119;28;20101;-54
2023/09/17 05:38:26;;;;;;;32.90;17.27;;;17.30;99.90;;;;;;5018080;28;20106;-50
2023/09/17 05:40:52;;;;;;;30.95;16.40;;;17.30;99.90;;;;;;5036328;28;20026;-53
2023/09/17 05:43:18;;;;;;;33.53;17.25;;;17.30;99.90;;;;;;5036577;28;20038;-53
2023/09/17 05:45:44;;;;;;;30.83;17.33;;;17.30;99.90;;;;;;5036212;28;20025;-51
2023/09/17 05:48:10;;;;;;;32.78;16.13;;;17.30;99.90;;;;;;5018593;28;20030;-54
2023/09/17 05:50:36;;;;;;;32.13;16.02;;;17.30;99.90;;;;;;5018150;28;20440;-55
2023/09/17 05:53:02;;;;;;;32.97;16.70;;;17.30;99.90;;;;;;5018620;28;20037;-54
2023/09/17 05:55:29;;;;;;;34.45;17.98;;;17.40;99.90;;;;;;5018731;28;20029;-52
2023/09/17 05:57:55;;;;;;;32.70;18.45;;;17.30;99.90;;;;;;5018753;28;20441;-52
2023/09/17 06:00:22;;;;;;;33.85;16.83;;;17.40;99.90;;;;;;5002008;28;20033;-53
2023/09/17 06:02:47;;;;;;;36.15;18.42;;;17.40;99.90;;;;;;5018444;28;20030;-50
2023/09/17 06:05:16;;;;;;;34.72;17.42;;;17.40;99.90;;;;;;5018840;28;20037;-55
2023/09/17 06:07:42;;;;;;;35.95;17.50;;;17.40;99.90;;;;;;5035867;28;20514;-54
2023/09/17 06:10:08;;;;;;;38.05;19.17;;;17.40;99.90;;;;;;5035661;28;20117;-55
2023/09/17 06:12:34;;;;;;;35.63;18.58;;;17.50;99.90;;;;;;5018048;28;20559;-52
2023/09/17 06:15:01;;;;;;;36.92;17.88;;;17.40;99.90;;;;;;5018268;28;20021;-56
2023/09/17 06:17:27;;;;;;;36.72;18.63;;;17.50;99.90;;;;;;5018327;28;20591;-55
2023/09/17 06:19:52;;;;;;;33.50;17.90;;;17.50;99.90;;;;;;5018028;28;20029;-55
2023/09/17 06:22:18;;;;;;;30.73;16.98;;;17.50;99.90;;;;;;5018085;28;20041;-51
2023/09/17 06:24:43;;;;;;;35.17;17.98;;;17.50;99.90;;;;;;5018147;28;20413;-54
2023/09/17 06:27:09;;;;;;;35.05;17.98;;;17.60;99.90;;;;;;5035608;28;20041;-53
2023/09/17 06:29:36;;;;;;;28.88;15.20;;;17.60;99.90;;;;;;5017532;28;20033;-53
2023/09/17 06:32:03;;;;;;;31.70;18.05;;;17.60;99.90;;;;;;5018096;28;20036;-54
2023/09/17 06:34:29;;;;;;;29.58;16.50;;;17.70;99.90;;;;;;5001908;28;20033;-50
2023/09/17 06:36:54;;;;;;;31.60;17.65;;;17.70;99.90;;;;;;5018091;28;20025;-51
2023/09/17 06:39:20;;;;;;;30.90;17.58;;;17.80;99.90;;;;;;5017681;28;20032;-51
2023/09/17 06:41:46;;;;;;;33.92;17.30;;;17.80;99.90;;;;;;5018081;28;20128;-53
2023/09/17 06:44:12;;;;;;;33.50;16.98;;;17.80;99.90;;;;;;5001451;28;20528;-54
2023/09/17 06:46:38;;;;;;;34.22;17.38;;;17.90;99.90;;;;;;5017843;28;20049;-55
2023/09/17 06:49:03;;;;;;;33.42;17.88;;;17.80;99.90;;;;;;5035945;28;20083;-50
2023/09/17 06:51:29;;;;;;;33.25;17.70;;;17.90;99.90;;;;;;5035242;28;20397;-51
2023/09/17 06:53:55;;;;;;;33.03;17.73;;;17.90;99.90;;;;;;5035714;28;20026;-49
2023/09/17 06:56:23;;;;;;;34.47;17.25;;;18.00;99.90;;;;;;5018094;28;20056;-54
2023/09/17 06:58:49;;;;;;;35.42;18.48;;;18.10;99.90;;;;;;5035441;28;20452;-50
2023/09/17 07:01:15;;;;;;;33.22;17.38;;;18.20;99.90;;;;;;5017995;28;20037;-51
2023/09/17 07:03:40;;;;;;;29.60;15.88;;;18.30;99.90;;;;;;5018718;28;20116;-50
2023/09/17 07:06:06;;;;;;;28.48;14.98;;;18.40;99.90;;;;;;5035835;28;20025;-50
2023/09/17 07:08:31;;;;;;;30.17;16.02;;;18.50;99.90;;;;;;5035572;28;20037;-49
2023/09/17 07:10:57;;;;;;;26.30;14.73;;;18.60;99.90;;;;;;5036154;28;20033;-50
2023/09/17 07:13:23;;;;;;;23.83;14.25;;;18.70;99.90;;;;;;5018387;28;20037;-49
2023/09/17 07:15:48;;;;;;;23.10;14.23;;;18.80;99.90;;;;;;5035504;28;20045;-51
2023/09/17 07:18:15;;;;;;;19.35;11.98;;;18.90;99.90;;;;;;5034639;28;20394;-51
2023/09/17 07:20:41;;;;;;;22.63;11.93;;;19.00;99.90;;;;;;5033699;28;20501;-54
2023/09/17 07:23:08;;;;;;;22.77;12.63;;;19.10;99.90;;;;;;5033970;28;20034;-52
2023/09/17 07:25:33;;;;;;;19.40;11.45;;;19.20;99.90;;;;;;5033703;28;20034;-52
2023/09/17 07:28:04;;;;;;;23.77;12.10;;;19.40;99.90;;;;;;5033635;28;20021;-54
2023/09/17 07:30:34;;;;;;;23.60;12.15;;;19.60;99.90;;;;;;5033970;28;20025;-54
2023/09/17 07:32:59;;;;;;;21.25;10.80;;;19.80;99.90;;;;;;5033943;28;20033;-54
2023/09/17 07:35:25;;;;;;;18.30;10.35;;;20.00;99.90;;;;;;5034146;28;20441;-54
2023/09/17 07:37:51;;;;;;;18.60;11.18;;;20.10;99.90;;;;;;5034345;28;20025;-54
2023/09/17 07:40:16;;;;;;;15.55;8.75;;;20.20;99.90;;;;;;5034047;28;20087;-55
2023/09/17 07:42:42;;;;;;;15.57;9.52;;;20.50;99.90;;;;;;5016651;28;20033;-53
2023/09/17 07:45:08;;;;;;;16.27;9.32;;;20.60;99.90;;;;;;5034690;28;20083;-54
2023/09/17 07:47:34;;;;;;;15.02;8.73;;;20.70;99.90;;;;;;5034408;28;20040;-52
2023/09/17 07:50:00;;;;;;;12.10;7.50;;;20.80;99.90;;;;;;5034526;28;20029;-53
2023/09/17 07:52:25;;;;;;;11.20;6.03;;;20.90;99.90;;;;;;5034479;28;20406;-54
2023/09/17 07:54:51;;;;;;;10.35;6.55;;;20.90;99.90;;;;;;5034176;28;20025;-55
2023/09/17 07:57:17;;;;;;;10.90;6.70;;;21.10;99.90;;;;;;5034197;28;20037;-54
2023/09/17 07:59:42;;;;;;;8.25;4.88;;;21.20;99.90;;;;;;5034100;28;20021;-52
2023/09/17 08:02:09;;;;;;;16.30;7.22;;;21.30;99.90;;;;;;5034640;28;20026;-55
2023/09/17 08:04:34;;;;;;;9.32;6.22;;;21.30;99.90;;;;;;5034353;28;20053;-55
2023/09/17 08:07:00;;;;;;;11.57;6.50;;;21.40;99.90;;;;;;5033434;28;20091;-52
2023/09/17 08:09:26;;;;;;;7.53;4.70;;;21.40;99.90;;;;;;5033446;28;20029;-54
2023/09/17 08:11:51;;;;;;;10.23;6.65;;;21.40;99.90;;;;;;5033573;28;20034;-55
2023/09/17 08:14:17;;;;;;;9.75;6.13;;;21.40;99.90;;;;;;5033558;28;20049;-54
2023/09/17 08:16:43;;;;;;;7.93;5.10;;;21.50;99.90;;;;;;5033479;28;20516;-54
2023/09/17 08:19:10;;;;;;;13.25;7.30;;;21.60;99.90;;;;;;5016122;28;20116;-55
2023/09/17 08:21:35;;;;;;;11.32;6.88;;;21.60;99.90;;;;;;5033932;28;20478;-55
2023/09/17 08:24:01;;;;;;;10.38;5.75;;;21.70;99.90;;;;;;5033843;28;20032;-53
2023/09/17 08:26:29;;;;;;;10.90;5.90;;;21.80;99.90;;;;;;5033608;28;20040;-55
2023/09/17 08:28:56;;;;;;;7.30;4.95;;;21.90;99.90;;;;;;5032782;28;20076;-53
2023/09/17 08:31:24;;;;;;;8.38;4.50;;;22.00;99.90;;;;;;5032511;28;20033;-55
2023/09/17 08:33:51;;;;;;;7.50;4.57;;;22.10;99.90;;;;;;5033022;28;20029;-53
2023/09/17 08:36:23;;;;;;;12.00;6.93;;;22.10;99.90;;;;;;5015112;28;20087;-53
2023/09/17 08:38:49;;;;;;;7.00;4.55;;;22.10;99.90;;;;;;5032299;28;20037;-54
2023/09/17 08:41:19;;;;;;;6.00;3.85;;;22.10;99.90;;;;;;5032754;28;20040;-54
2023/09/17 08:43:46;;;;;;;8.40;4.97;;;22.10;99.90;;;;;;5032159;28;20060;-55
2023/09/17 08:46:12;;;;;;;5.97;3.88;;;22.20;99.90;;;;;;5014636;28;20489;-56
2023/09/17 08:48:38;;;;;;;7.35;3.92;;;22.20;99.90;;;;;;5032010;28;20037;-53
2023/09/17 08:51:05;;;;;;;6.40;4.30;;;22.30;99.90;;;;;;5014817;28;20493;-51
2023/09/17 08:53:39;;;;;;;10.75;4.00;;;22.40;99.90;;;;;;5031437;28;20362;-53
2023/09/17 08:56:06;;;;;;;7.00;4.07;;;22.40;99.90;;;;;;5032519;28;20034;-54
2023/09/17 08:58:39;;;;;;;6.40;4.20;;;22.50;99.90;;;;;;5032179;28;20466;-55
2023/09/17 09:01:10;;;;;;;7.50;4.20;;;22.50;99.90;;;;;;5032275;28;20484;-55
2023/09/17 09:03:38;;;;;;;6.40;3.53;;;22.40;99.90;;;;;;5014747;28;20033;-55
2023/09/17 09:06:04;;;;;;;6.68;3.88;;;22.50;99.90;;;;;;5032395;28;20033;-55
2023/09/17 09:08:34;;;;;;;6.28;3.67;;;22.70;99.90;;;;;;5031853;28;20030;-54
2023/09/17 09:11:00;;;;;;;4.88;3.08;;;22.90;99.90;;;;;;5032930;28;20117;-54
2023/09/17 09:13:26;;;;;;;7.03;4.03;;;22.90;99.90;;;;;;5032183;28;20061;-55
2023/09/17 09:15:53;;;;;;;6.13;3.92;;;23.00;99.90;;;;;;5032623;28;20021;-54
2023/09/17 09:18:19;;;;;;;5.88;3.38;;;23.00;99.90;;;;;;5014544;28;20040;-53
2023/09/17 09:20:45;;;;;;;7.05;3.78;;;23.10;99.90;;;;;;5032108;28;20026;-54
2023/09/17 09:23:10;;;;;;;6.80;4.43;;;23.10;99.90;;;;;;5032083;28;20041;-55
2023/09/17 09:25:36;;;;;;;12.45;7.70;;;23.10;99.90;;;;;;5032399;28;20049;-55
2023/09/17 09:28:02;;;;;;;8.15;4.35;;;23.20;99.90;;;;;;5031974;28;20037;-55
2023/09/17 09:30:28;;;;;;;6.95;4.45;;;23.10;99.90;;;;;;5032022;28;20344;-56
2023/09/17 09:32:56;;;;;;;6.28;3.67;;;23.10;99.90;;;;;;5032213;28;20076;-54
2023/09/17 09:35:23;;;;;;;6.28;3.97;;;23.10;99.90;;;;;;5032410;28;20036;-55
2023/09/17 09:37:51;;;;;;;6.40;3.30;;;23.30;99.90;;;;;;5031879;28;20486;-55
2023/09/17 09:40:17;;;;;;;5.18;3.38;;;23.50;99.90;;;;;;5014510;28;20026;-55
2023/09/17 09:42:43;;;;;;;5.82;3.63;;;23.70;99.90;;;;;;5032084;28;20393;-55
2023/09/17 09:45:18;;;;;;;5.18;3.42;;;23.80;99.90;;;;;;5031990;28;20038;-54
2023/09/17 09:47:50;;;;;;;6.00;3.65;;;23.70;99.90;;;;;;5031919;28;20072;-55
2023/09/17 09:50:22;;;;;;;6.97;4.00;;;23.70;99.90;;;;;;5031445;28;20542;-55
2023/09/17 09:52:48;;;;;;;8.40;3.97;;;23.70;99.90;;;;;;5032339;28;20029;-54
2023/09/17 09:55:14;;;;;;;4.95;3.47;;;23.80;99.90;;;;;;4997927;28;20087;-55
2023/09/17 09:57:42;;;;;;;5.80;4.18;;;23.70;99.90;;;;;;5014361;28;20030;-53
2023/09/17 10:00:12;;;;;;;6.20;3.58;;;23.70;99.90;;;;;;5031591;28;20026;-55
2023/09/17 10:02:38;;;;;;;5.25;3.47;;;23.70;99.90;;;;;;5032106;28;20074;-55
2023/09/17 10:05:04;;;;;;;4.82;3.33;;;24.10;99.90;;;;;;5035670;28;20506;-54
2023/09/17 10:07:31;;;;;;;6.50;4.25;;;24.20;99.90;;;;;;5035310;28;20104;-55
2023/09/17 10:09:58;;;;;;;5.68;3.03;;;24.10;99.90;;;;;;5034835;28;20061;-55
2023/09/17 10:12:23;;;;;;;5.55;2.90;;;23.90;99.90;;;;;;5035150;28;20476;-54
2023/09/17 10:14:49;;;;;;;6.38;3.53;;;23.80;99.90;;;;;;5035143;28;20117;-54
2023/09/17 10:17:17;;;;;;;6.03;3.47;;;23.90;99.90;;;;;;5035347;28;20367;-55
2023/09/17 10:19:44;;;;;;;5.10;2.70;;;24.30;99.90;;;;;;5034592;28;20033;-55
2023/09/17 10:22:12;;;;;;;5.50;3.08;;;24.70;99.90;;;;;;5034802;28;20037;-55
2023/09/17 10:24:38;;;;;;;6.32;3.22;;;25.00;99.90;;;;;;5035019;28;20069;-55
2023/09/17 10:27:06;;;;;;;4.93;3.20;;;25.20;99.90;;;;;;5017329;28;20107;-55
2023/09/17 10:29:33;;;;;;;4.40;2.97;;;26.00;99.90;;;;;;5034588;28;20030;-55
2023/09/17 10:32:01;;;;;;;4.82;2.65;;;26.80;99.90;;;;;;5034844;28;20813;-55
2023/09/17 10:34:30;;;;;;;4.43;2.53;;;27.40;99.90;;;;;;5035209;28;20029;-56
2023/09/17 10:36:56;;;;;;;;;;;28.00;99.90;;;;;;5035838;28;20206;-56
2023/09/17 10:39:26;;;;;;;7.10;2.78;;;28.50;99.90;;;;;;5033948;28;20012;-52
2023/09/17 10:41:55;;;;;;;4.80;2.58;;;28.20;99.90;;;;;;5034408;28;20036;-55
2023/09/17 10:44:21;;;;;;;;;;;27.80;99.90;;;;;;5035377;28;20539;-54
2023/09/17 10:46:48;;;;;;;5.97;2.65;;;27.60;99.90;;;;;;5035071;28;19913;-54
2023/09/17 10:49:16;;;;;;;4.13;2.63;;;27.90;99.90;;;;;;5034022;28;20120;-55
2023/09/17 10:51:44;;;;;;;3.60;2.33;;;28.40;99.90;;;;;;5034630;28;20033;-55
2023/09/17 10:54:10;;;;;;;4.07;2.53;;;28.00;99.90;;;;;;5034764;28;20051;-55
2023/09/17 10:56:41;;;;;;;5.20;3.03;;;27.70;99.90;;;;;;5016570;28;20029;-55
2023/09/17 10:59:12;;;;;;;3.65;2.80;;;27.60;99.90;;;;;;5033994;28;20033;-55
2023/09/17 11:01:41;;;;;;;5.88;3.05;;;27.20;99.90;;;;;;5016708;28;20136;-55
2023/09/17 11:04:15;;;;;;;3.47;2.20;;;26.90;99.90;;;;;;5033856;28;20036;-55
2023/09/17 11:06:44;;;;;;;4.38;2.42;;;26.70;99.90;;;;;;5034056;28;20017;-55
2023/09/17 11:09:11;;;;;;;;;;;26.40;99.90;;;;;;5033914;28;20037;-54
2023/09/17 11:11:37;;;;;;;3.42;2.13;;;26.30;99.90;;;;;;5033507;28;19908;-54
2023/09/17 11:14:04;;;;;;;5.35;2.90;;;26.10;99.90;;;;;;5033948;28;20518;-55
2023/09/17 11:16:32;;;;;;;3.63;2.20;;;26.10;99.90;;;;;;5033132;28;20385;-55
2023/09/17 11:19:10;;;;;;;5.45;3.42;;;26.00;99.90;;;;;;5033654;28;20033;-55
2023/09/17 11:22:14;;;;;;;5.05;3.72;;;26.00;99.90;;;;;;5035018;28;20055;-52
2023/09/17 11:24:44;;;;;;;5.13;2.80;;;26.00;99.90;;;;;;5030974;28;20037;-54
2023/09/17 11:27:11;;;;;;;5.07;2.70;;;26.00;99.90;;;;;;5034826;28;20040;-54
2023/09/17 11:29:39;;;;;;;3.37;2.20;;;26.10;99.90;;;;;;5034549;28;20030;-52
2023/09/17 11:32:05;;;;;;;3.47;2.23;;;26.00;99.90;;;;;;5034261;28;20036;-51
2023/09/17 11:34:32;;;;;;;4.65;2.72;;;26.00;99.90;;;;;;5034065;28;20025;-53
2023/09/17 11:36:58;;;;;;;3.70;2.47;;;25.90;99.90;;;;;;5034254;28;20029;-52
2023/09/17 11:39:24;;;;;;;4.25;2.67;;;25.90;99.90;;;;;;5016180;28;20051;-54
2023/09/17 11:42:02;;;;;;;3.78;2.40;;;25.90;99.90;;;;;;5034269;28;20036;-54
2023/09/17 11:44:29;;;;;;;4.53;2.92;;;26.10;99.90;;;;;;5034570;28;20037;-52
2023/09/17 11:46:56;;;;;;;4.57;2.90;;;26.10;99.90;;;;;;5034611;28;20037;-51
2023/09/17 11:49:22;;;;;;;4.28;2.60;;;26.00;99.90;;;;;;5033533;28;20545;-53
2023/09/17 11:51:48;;;;;;;5.38;3.13;;;25.80;99.90;;;;;;5034107;28;20088;-55
2023/09/17 11:54:19;;;;;;;4.72;3.20;;;25.70;99.90;;;;;;5034712;28;20048;-54
2023/09/17 11:56:47;;;;;;;4.97;2.75;;;25.70;99.90;;;;;;5034220;28;20120;-53
2023/09/17 11:59:18;;;;;;;4.53;2.90;;;25.90;99.90;;;;;;5015479;28;20033;-49
2023/09/17 12:01:55;;;;;;;7.15;3.15;;;26.10;99.90;;;;;;5034523;28;20617;-52
2023/09/17 12:04:33;;;;;;;4.50;2.65;;;26.30;99.90;;;;;;5016602;28;20029;-50
2023/09/17 12:06:59;;;;;;;4.70;2.55;;;26.30;99.90;;;;;;5034470;28;20025;-51
2023/09/17 12:09:48;;;;;;;8.38;4.28;;;26.10;99.90;;;;;;5016073;28;20482;-49
2023/09/17 12:12:19;;;;;;;9.27;5.57;;;25.90;99.90;;;;;;5034118;28;20037;-49
2023/09/17 12:14:47;;;;;;;8.27;4.53;;;26.00;99.90;;;;;;5016463;28;20501;-51
2023/09/17 12:17:13;;;;;;;3.75;2.38;;;26.10;99.90;;;;;;5016317;28;20467;-50
2023/09/17 12:19:40;;;;;;;5.07;2.70;;;26.20;99.90;;;;;;5033666;28;20056;-55
2023/09/17 12:22:09;;;;;;;3.50;2.45;;;26.10;99.90;;;;;;5033841;28;20076;-52
2023/09/17 12:24:37;;;;;;;3.88;2.63;;;25.90;99.90;;;;;;5032444;28;20037;-52
2023/09/17 12:29:50;;;;;;;4.75;2.60;;;25.90;99.90;;;;;;5014877;28;20132;-54
2023/09/17 12:32:19;;;;;;;3.65;2.25;;;26.10;99.90;;;;;;5033248;28;20060;-54
2023/09/17 12:34:48;;;;;;;4.07;2.75;;;26.10;99.90;;;;;;5033898;28;20040;-54
2023/09/17 12:37:14;;;;;;;4.15;2.60;;;26.00;99.90;;;;;;5033332;28;20041;-54